Augusta Regional At Bush Field
KAGS : now visible

Airfield :











YOU CAN JOIN US ON...

 
LOGIN :

Register | Disclaimer

   EN    FR    IT 

 









Legend :    VFR   Marginal VFR   IFR   Intensive IFR   Very Intensive IFR
Visi :
Ceiling :
>= 8 km
>= 3000ft
5 to 8 km
1000 to 3000 ft
1500m to 5 km
500 to 1000 ft
800 to 1500m
200 to 500 ft
< 800m
< 200 ft
Symbols :   Thunderstorms  Fog  Heavy snow  Heavy precipitations  Wind > 20 kt






- Airport Elevation : 144 ft
- IATA code : AGS


KAGS - Augusta Regional At Bush Field

CURRENT METAR :
  • 251953Z 23005KT 10SM OVC042 23/14 A2991 RMK AO2 SLP126 T02330144

EXPIRED METARs :
  • 251853Z 20010KT 10SM FEW033 BKN060 24/14 A2990 RMK AO2 SLP122 T02440144
  • 251753Z 19010KT 10SM CLR 23/15 A2991 RMK AO2 SLP127 T02280150 10228 20117 58034

TAF KAGS
Valid from the 25 at 19:00 until the 26 at 18:00 UTC


251915Z 2519/2618 20009KT P6SM SCT015 BKN040
FM252100 21008KT P6SM SCT012 BKN035
FM260700 22007KT P6SM BKN015
FM261500 24010G18KT P6SM BKN015
KZTL FIR / North America



MET'MAP, your aeronautical weather chart ! - Copyright ORBIFLY December 2007 - Disclaimer

ORBIFLY MET'MAP TEAM :

Programming & Development : Alexandra Zaïnal
Concept & original design : Baudouin d'Aumeries
Assistance for programming : Marc-Olivier Méhu
Technical & hardware support : Manuel Goepfert

Contact : metmap@orbifly.com




SOURCES & CREDITS :

   NOAA       Earth
Advisory